createdAt,value
2022-08-01T00:00:09.747Z,3.7
2022-08-01T00:01:08.129Z,4.5
2022-08-01T00:02:08.371Z,4.8
2022-08-01T00:03:08.167Z,4.8
2022-08-01T00:04:07.950Z,4.4
2022-08-01T00:05:08.991Z,4.0
2022-08-01T00:06:08.487Z,3.5
2022-08-01T00:07:08.370Z,4.4
2022-08-01T00:08:08.143Z,5.1
2022-08-01T00:09:07.925Z,4.4
2022-08-01T00:10:09.971Z,3.9
2022-08-01T00:11:08.482Z,4.8
2022-08-01T00:12:08.574Z,4.6
2022-08-01T00:13:08.142Z,3.7
2022-08-01T00:14:07.975Z,4.4
2022-08-01T00:15:09.546Z,4.4
2022-08-01T00:16:08.463Z,4.7
2022-08-01T00:17:08.340Z,4.5
2022-08-01T00:18:08.127Z,4.4
2022-08-01T00:19:07.933Z,4.5
2022-08-01T00:20:10.200Z,5.2
2022-08-01T00:21:08.582Z,4.7
2022-08-01T00:22:08.658Z,4.5
2022-08-01T00:23:08.203Z,4.9
2022-08-01T00:24:08.145Z,3.9
2022-08-01T00:25:09.073Z,4.7
2022-08-01T00:26:08.453Z,4.5
2022-08-01T00:27:08.303Z,4.6
2022-08-01T00:28:08.162Z,4.3
2022-08-01T00:29:11.644Z,4.5
2022-08-01T00:30:13.090Z,4.3
2022-08-01T00:31:08.524Z,4.0
2022-08-01T00:32:08.655Z,4.7
2022-08-01T00:33:08.221Z,3.8
2022-08-01T00:34:08.018Z,4.2
2022-08-01T00:35:08.775Z,4.0
2022-08-01T00:36:08.619Z,4.9
2022-08-01T00:37:08.314Z,5.2
2022-08-01T00:38:08.212Z,3.6
2022-08-01T00:39:08.003Z,4.7
2022-08-01T00:40:08.868Z,4.4
2022-08-01T00:41:08.562Z,4.3
2022-08-01T00:42:09.624Z,4.1
2022-08-01T00:43:08.232Z,4.8
2022-08-01T00:44:08.062Z,4.2
2022-08-01T00:45:09.054Z,4.2
2022-08-01T00:46:08.634Z,4.0
2022-08-01T00:47:08.388Z,3.7
2022-08-01T00:48:08.231Z,4.2
2022-08-01T00:49:08.163Z,4.1
2022-08-01T00:50:09.104Z,3.6
2022-08-01T00:51:08.636Z,3.9
2022-08-01T00:52:09.011Z,3.9
2022-08-01T00:53:08.566Z,4.9
2022-08-01T00:54:08.197Z,4.1
2022-08-01T00:55:10.124Z,3.3
2022-08-01T00:56:08.882Z,4.6
2022-08-01T00:57:10.144Z,2.5
2022-08-01T00:58:08.217Z,4.5
2022-08-01T00:59:08.250Z,4.1
2022-08-01T01:00:09.280Z,4.6
2022-08-01T01:01:08.743Z,4.3
2022-08-01T01:02:08.554Z,3.9
2022-08-01T01:03:08.273Z,4.3
2022-08-01T01:04:08.309Z,3.6
2022-08-01T01:05:08.855Z,3.9
2022-08-01T01:06:13.400Z,4.1
2022-08-01T01:07:18.832Z,3.4
2022-08-01T01:08:12.580Z,2.8
2022-08-01T01:09:15.876Z,3.3
2022-08-01T01:10:26.763Z,3.7
2022-08-01T01:11:10.987Z,4.5
2022-08-01T01:12:15.822Z,3.9
2022-08-01T01:13:12.891Z,3.8
2022-08-01T01:14:12.855Z,4.0
2022-08-01T01:15:10.659Z,4.9
2022-08-01T01:16:13.360Z,4.0
2022-08-01T01:17:08.855Z,3.6
2022-08-01T01:18:27.810Z,3.3
2022-08-01T01:19:10.821Z,3.5
2022-08-01T01:20:10.434Z,3.7
2022-08-01T01:21:22.498Z,4.4
2022-08-01T01:22:13.254Z,4.4
2022-08-01T01:23:13.076Z,3.3
2022-08-01T01:24:12.811Z,4.0
2022-08-01T01:25:31.336Z,3.9
2022-08-01T01:26:13.312Z,4.4
2022-08-01T01:27:13.213Z,3.5
2022-08-01T01:28:26.255Z,3.3
2022-08-01T01:29:20.899Z,4.2
2022-08-01T01:30:08.850Z,3.3
2022-08-01T01:31:11.037Z,4.8
2022-08-01T01:32:28.804Z,4.1
2022-08-01T01:33:09.063Z,3.6
2022-08-01T01:34:09.362Z,3.8
2022-08-01T01:35:13.546Z,3.7
2022-08-01T01:36:11.663Z,3.5
2022-08-01T01:37:10.880Z,3.8
2022-08-01T01:38:10.523Z,3.0
2022-08-01T01:39:07.956Z,3.3
2022-08-01T01:40:09.817Z,3.3
2022-08-01T01:41:09.734Z,3.9
2022-08-01T01:42:08.709Z,3.8
2022-08-01T01:43:09.622Z,3.8
2022-08-01T01:44:09.261Z,3.8
2022-08-01T01:45:09.100Z,3.7
2022-08-01T01:46:09.691Z,4.0
2022-08-01T01:47:08.994Z,3.9
2022-08-01T01:48:10.081Z,3.8
2022-08-01T01:49:08.765Z,2.7
2022-08-01T01:50:09.135Z,3.1
2022-08-01T01:51:08.291Z,3.3
2022-08-01T01:52:09.524Z,3.0
2022-08-01T01:53:14.922Z,3.9
2022-08-01T01:54:08.862Z,3.2
2022-08-01T01:55:08.923Z,3.5
2022-08-01T01:56:09.035Z,3.5
2022-08-01T01:57:09.361Z,4.2
2022-08-01T01:58:09.951Z,3.3
2022-08-01T01:59:08.420Z,3.5
2022-08-01T02:00:10.423Z,2.6
2022-08-01T02:01:14.507Z,4.8
2022-08-01T02:02:09.417Z,3.2
2022-08-01T02:03:09.770Z,3.4
2022-08-01T02:04:09.044Z,4.1
2022-08-01T02:05:09.392Z,3.4
2022-08-01T02:06:08.163Z,3.2
2022-08-01T02:07:11.948Z,3.8
2022-08-01T02:08:09.543Z,2.8
2022-08-01T02:09:08.773Z,3.7
2022-08-01T02:10:10.232Z,3.2
2022-08-01T02:11:09.190Z,4.3
2022-08-01T02:12:11.010Z,3.2
2022-08-01T02:13:08.649Z,3.4
2022-08-01T02:14:10.056Z,3.5
2022-08-01T02:15:09.419Z,4.3
2022-08-01T02:16:08.735Z,3.0
2022-08-01T02:17:12.146Z,3.4
2022-08-01T02:18:09.029Z,3.1
2022-08-01T02:19:08.517Z,3.4
2022-08-01T02:20:08.710Z,3.1
2022-08-01T02:21:10.933Z,2.6
2022-08-01T02:22:14.083Z,2.8
2022-08-01T02:23:11.615Z,3.4
2022-08-01T02:24:16.885Z,4.4
2022-08-01T02:25:13.001Z,4.0
2022-08-01T02:26:11.670Z,3.7
2022-08-01T02:27:10.096Z,3.4
2022-08-01T02:28:13.213Z,3.1
2022-08-01T02:29:09.771Z,4.0
2022-08-01T02:30:09.037Z,3.4
2022-08-01T02:31:11.882Z,3.4
2022-08-01T02:32:11.887Z,3.6
2022-08-01T02:33:16.171Z,2.7
2022-08-01T02:34:09.899Z,2.9
2022-08-01T02:35:11.619Z,4.3
2022-08-01T02:36:29.729Z,2.9
2022-08-01T02:37:09.649Z,3.6
2022-08-01T02:38:09.610Z,3.8
2022-08-01T02:39:08.996Z,3.1
2022-08-01T02:40:08.473Z,3.9
2022-08-01T02:41:09.983Z,3.9
2022-08-01T02:42:09.580Z,3.4
2022-08-01T02:43:09.215Z,3.0
2022-08-01T02:44:09.767Z,3.8
2022-08-01T02:45:09.084Z,2.9
2022-08-01T02:46:11.694Z,3.4
2022-08-01T02:47:08.528Z,3.5
2022-08-01T02:48:11.189Z,2.7
2022-08-01T02:49:09.407Z,3.1
2022-08-01T02:50:10.386Z,3.4
2022-08-01T02:51:09.070Z,3.9
2022-08-01T02:52:09.897Z,3.2
2022-08-01T02:53:09.261Z,2.8
2022-08-01T02:54:08.374Z,3.2
2022-08-01T02:55:08.942Z,2.6
2022-08-01T02:56:10.157Z,3.3
2022-08-01T02:57:08.951Z,3.0
2022-08-01T02:58:09.797Z,3.2
2022-08-01T02:59:10.189Z,2.8
2022-08-01T03:00:08.464Z,2.7
2022-08-01T03:01:09.609Z,3.0
2022-08-01T03:02:10.133Z,4.0
2022-08-01T03:03:08.964Z,3.4
2022-08-01T03:04:08.849Z,3.4
2022-08-01T03:05:08.202Z,2.7
2022-08-01T03:06:08.791Z,3.1
2022-08-01T03:07:09.676Z,3.4
2022-08-01T03:08:14.515Z,3.8
2022-08-01T03:09:08.504Z,3.3
2022-08-01T03:10:09.699Z,2.8
2022-08-01T03:11:08.957Z,3.4
2022-08-01T03:12:11.415Z,3.1
2022-08-01T03:13:08.861Z,3.0
2022-08-01T03:14:09.132Z,2.6
2022-08-01T03:15:09.260Z,2.9
2022-08-01T03:16:09.365Z,3.2
2022-08-01T03:17:09.132Z,2.1
2022-08-01T03:18:09.275Z,2.0
2022-08-01T03:19:09.811Z,2.5
2022-08-01T03:20:08.599Z,2.9
2022-08-01T03:21:09.376Z,3.1
2022-08-01T03:22:11.268Z,2.6
2022-08-01T03:23:09.341Z,2.8
2022-08-01T03:24:08.960Z,3.1
2022-08-01T03:25:10.450Z,2.8
2022-08-01T03:26:09.066Z,2.7
2022-08-01T03:27:08.856Z,3.4
2022-08-01T03:28:08.835Z,3.6
2022-08-01T03:29:12.675Z,3.0
2022-08-01T03:30:09.415Z,3.0
2022-08-01T03:31:09.445Z,3.0
2022-08-01T03:32:09.602Z,3.6
2022-08-01T03:33:09.128Z,2.9
2022-08-01T03:34:08.423Z,3.0
2022-08-01T03:35:09.069Z,3.2
2022-08-01T03:36:09.549Z,2.6
2022-08-01T03:37:12.439Z,3.0
2022-08-01T03:38:16.461Z,2.8
2022-08-01T03:39:09.286Z,3.4
2022-08-01T03:40:11.237Z,2.9
2022-08-01T03:41:16.343Z,2.7
2022-08-01T03:42:12.315Z,2.5
2022-08-01T03:43:12.609Z,3.1
2022-08-01T03:44:10.669Z,2.8
2022-08-01T03:45:10.200Z,3.2
2022-08-01T03:46:10.632Z,2.6
2022-08-01T03:47:09.088Z,2.7
2022-08-01T03:48:14.042Z,3.3
2022-08-01T03:49:12.990Z,3.4
2022-08-01T03:50:12.503Z,3.0
2022-08-01T03:51:08.975Z,2.5
2022-08-01T03:52:08.940Z,2.9
2022-08-01T03:53:08.508Z,2.6
2022-08-01T03:54:08.694Z,2.4
2022-08-01T03:55:10.084Z,3.3
2022-08-01T03:56:09.661Z,2.2
2022-08-01T03:57:09.143Z,3.1
2022-08-01T03:58:09.933Z,3.0
2022-08-01T03:59:09.194Z,2.7
2022-08-01T04:00:09.569Z,2.2
2022-08-01T04:01:08.597Z,2.5
2022-08-01T04:02:08.770Z,3.1
2022-08-01T04:03:08.701Z,2.7
2022-08-01T04:04:08.131Z,2.7
2022-08-01T04:05:09.025Z,2.5
2022-08-01T04:06:08.503Z,2.6
2022-08-01T04:07:23.852Z,2.8
2022-08-01T04:08:08.241Z,3.2
2022-08-01T04:09:13.140Z,3.0
2022-08-01T04:10:09.652Z,2.4
2022-08-01T04:11:09.084Z,2.9
2022-08-01T04:12:10.161Z,2.6
2022-08-01T04:13:08.074Z,1.9
2022-08-01T04:14:09.413Z,2.9
2022-08-01T04:15:08.607Z,3.0
2022-08-01T04:16:08.474Z,2.6
2022-08-01T04:17:08.201Z,2.3
2022-08-01T04:18:08.063Z,2.4
2022-08-01T04:19:08.774Z,3.0
2022-08-01T04:20:09.142Z,2.9
2022-08-01T04:21:08.486Z,3.4
2022-08-01T04:22:08.799Z,2.8
2022-08-01T04:23:09.186Z,2.9
2022-08-01T04:24:12.608Z,2.3
2022-08-01T04:25:14.497Z,2.8
2022-08-01T04:26:09.130Z,2.8
2022-08-01T04:27:09.925Z,2.8
2022-08-01T04:28:10.353Z,2.8
2022-08-01T04:29:09.405Z,2.5
2022-08-01T04:30:09.118Z,2.7
2022-08-01T04:31:09.437Z,2.6
2022-08-01T04:32:10.559Z,2.9
2022-08-01T04:33:08.276Z,3.3
2022-08-01T04:34:09.350Z,2.4
2022-08-01T04:35:22.546Z,3.4
2022-08-01T04:36:10.554Z,2.2
2022-08-01T04:37:09.064Z,2.5
2022-08-01T04:38:08.835Z,2.7
2022-08-01T04:39:09.475Z,3.0
2022-08-01T04:40:08.804Z,2.8
2022-08-01T04:41:10.057Z,2.2
2022-08-01T04:42:08.691Z,1.5
2022-08-01T04:43:08.108Z,1.9
2022-08-01T04:44:08.671Z,2.4
2022-08-01T04:45:08.884Z,2.5
2022-08-01T04:46:08.829Z,2.3
2022-08-01T04:47:08.953Z,1.8
2022-08-01T04:48:09.220Z,2.5
2022-08-01T04:49:09.148Z,2.6
2022-08-01T04:50:08.924Z,3.0
2022-08-01T04:51:13.216Z,2.1
2022-08-01T04:52:08.338Z,2.5
2022-08-01T04:53:14.628Z,1.7
2022-08-01T04:54:08.588Z,2.2
2022-08-01T04:55:08.716Z,1.3
2022-08-01T04:56:08.260Z,2.2
2022-08-01T04:57:08.059Z,2.6
2022-08-01T04:58:16.129Z,1.7
2022-08-01T04:59:08.601Z,1.7
2022-08-01T05:00:08.900Z,2.3
2022-08-01T05:01:09.103Z,2.0
2022-08-01T05:02:15.020Z,1.3
2022-08-01T05:03:07.893Z,2.5
2022-08-01T05:04:08.547Z,1.6
2022-08-01T05:05:08.627Z,2.0
2022-08-01T05:06:08.203Z,2.4
2022-08-01T05:07:08.797Z,3.2
2022-08-01T05:08:08.710Z,2.2
2022-08-01T05:09:08.536Z,2.8
2022-08-01T05:10:08.710Z,2.7
2022-08-01T05:11:08.200Z,2.0
2022-08-01T05:12:08.732Z,2.5
2022-08-01T05:13:08.974Z,2.1
2022-08-01T05:14:08.571Z,2.5
2022-08-01T05:15:14.777Z,2.4
2022-08-01T05:16:08.546Z,1.9
2022-08-01T05:17:08.484Z,2.6
2022-08-01T05:18:09.585Z,2.3
2022-08-01T05:19:08.741Z,2.4
2022-08-01T05:20:08.780Z,1.9
2022-08-01T05:21:08.139Z,2.1
2022-08-01T05:22:09.199Z,1.8
2022-08-01T05:23:10.106Z,2.7
2022-08-01T05:24:08.495Z,2.9
2022-08-01T05:25:08.410Z,1.5
2022-08-01T05:26:08.131Z,2.2
2022-08-01T05:27:07.908Z,2.1
2022-08-01T05:28:08.661Z,1.1
2022-08-01T05:29:08.442Z,2.9
2022-08-01T05:30:08.867Z,2.5
2022-08-01T05:31:08.120Z,2.4
2022-08-01T05:32:08.264Z,1.9
2022-08-01T05:33:08.622Z,2.3
2022-08-01T05:34:15.039Z,2.4
2022-08-01T05:35:08.609Z,2.1
2022-08-01T05:36:08.072Z,2.0
2022-08-01T05:37:08.823Z,2.3
2022-08-01T05:38:08.660Z,2.5
2022-08-01T05:39:08.609Z,1.5
2022-08-01T05:40:08.631Z,2.0
2022-08-01T05:41:08.072Z,1.8
2022-08-01T05:42:09.050Z,1.2
2022-08-01T05:43:08.569Z,1.5
2022-08-01T05:44:08.812Z,0.9
2022-08-01T05:45:08.477Z,1.6
2022-08-01T05:46:07.996Z,0.9
2022-08-01T05:47:08.748Z,1.4
2022-08-01T05:48:08.556Z,1.4
2022-08-01T05:49:08.456Z,1.0
2022-08-01T05:50:08.510Z,1.2
2022-08-01T05:51:08.057Z,1.1
2022-08-01T05:52:09.398Z,1.3
2022-08-01T05:53:08.533Z,1.5
2022-08-01T05:54:08.391Z,1.3
2022-08-01T05:55:08.575Z,1.9
2022-08-01T05:56:08.082Z,1.2
2022-08-01T05:57:08.735Z,1.1
2022-08-01T05:58:08.569Z,0.9
2022-08-01T05:59:08.397Z,0.9
2022-08-01T06:00:08.862Z,1.3
2022-08-01T06:01:08.065Z,1.9
2022-08-01T06:02:08.392Z,1.7
2022-08-01T06:03:08.549Z,1.6
2022-08-01T06:04:08.402Z,1.2
2022-08-01T06:05:12.876Z,1.6
2022-08-01T06:06:08.085Z,0.8
2022-08-01T06:07:08.801Z,0.8
2022-08-01T06:08:08.632Z,0.5
2022-08-01T06:09:08.439Z,1.2
2022-08-01T06:10:08.468Z,1.2
2022-08-01T06:11:08.289Z,1.0
2022-08-01T06:12:08.428Z,0.6
2022-08-01T06:13:08.598Z,0.8
2022-08-01T06:14:08.447Z,0.9
2022-08-01T06:15:08.512Z,0.8
2022-08-01T06:16:08.151Z,2.3
2022-08-01T06:17:07.915Z,1.8
2022-08-01T06:18:08.666Z,1.3
2022-08-01T06:19:08.483Z,1.4
2022-08-01T06:20:08.907Z,1.0
2022-08-01T06:21:08.173Z,1.1
2022-08-01T06:22:08.245Z,1.3
2022-08-01T06:23:31.208Z,1.1
2022-08-01T06:24:08.509Z,1.0
2022-08-01T06:25:08.653Z,0.8
2022-08-01T06:26:08.199Z,1.3
2022-08-01T06:27:21.531Z,0.7
2022-08-01T06:28:08.810Z,1.1
2022-08-01T06:29:09.962Z,1.2
2022-08-01T06:30:08.605Z,1.0
2022-08-01T06:31:08.169Z,0.7
2022-08-01T06:32:08.251Z,1.1
2022-08-01T06:33:08.724Z,0.5
2022-08-01T06:34:08.539Z,0.6
2022-08-01T06:35:08.484Z,1.2
2022-08-01T06:36:08.167Z,1.2
2022-08-01T06:37:08.050Z,0.9
2022-08-01T06:38:08.856Z,1.4
2022-08-01T06:39:08.633Z,0.9
2022-08-01T06:40:13.389Z,0.8
2022-08-01T06:41:08.248Z,1.2
2022-08-01T06:42:08.431Z,1.1
2022-08-01T06:43:07.908Z,1.3
2022-08-01T06:44:08.626Z,0.8
2022-08-01T06:45:09.684Z,0.9
2022-08-01T06:46:08.217Z,1.1
2022-08-01T06:47:08.070Z,1.2
2022-08-01T06:48:07.888Z,1.0
2022-08-01T06:49:08.774Z,1.2
2022-08-01T06:50:09.747Z,1.1
2022-08-01T06:51:08.316Z,1.2
2022-08-01T06:52:08.530Z,1.4
2022-08-01T06:53:07.958Z,0.9
2022-08-01T06:54:08.674Z,1.8
2022-08-01T06:55:08.883Z,1.4
2022-08-01T06:56:08.255Z,1.3
2022-08-01T06:57:08.093Z,1.0
2022-08-01T06:58:07.969Z,1.6
2022-08-01T06:59:08.885Z,1.2
2022-08-01T07:00:08.968Z,1.1
2022-08-01T07:01:08.475Z,1.3
2022-08-01T07:02:08.690Z,0.8
2022-08-01T07:03:08.018Z,1.4
2022-08-01T07:04:08.697Z,1.4
2022-08-01T07:05:08.794Z,1.5
2022-08-01T07:06:08.350Z,0.8
2022-08-01T07:07:08.206Z,0.9
2022-08-01T07:08:08.018Z,1.2
2022-08-01T07:09:13.742Z,1.5
2022-08-01T07:10:08.987Z,1.7
2022-08-01T07:11:08.454Z,0.9
2022-08-01T07:12:08.493Z,1.5
2022-08-01T07:13:08.108Z,1.6
2022-08-01T07:14:07.952Z,1.0
2022-08-01T07:15:09.238Z,1.5
2022-08-01T07:16:08.416Z,1.3
2022-08-01T07:17:08.265Z,1.6
2022-08-01T07:18:08.120Z,1.8
2022-08-01T07:19:07.919Z,1.6
2022-08-01T07:20:10.528Z,1.3
2022-08-01T07:21:12.747Z,1.5
2022-08-01T07:22:08.556Z,1.8
2022-08-01T07:23:08.183Z,1.8
2022-08-01T07:24:12.717Z,2.0
2022-08-01T07:25:09.688Z,1.4
2022-08-01T07:26:08.492Z,1.6
2022-08-01T07:27:11.565Z,1.1
2022-08-01T07:28:08.183Z,1.7
2022-08-01T07:29:08.023Z,1.4
2022-08-01T07:30:09.039Z,1.8
2022-08-01T07:31:08.576Z,1.3
2022-08-01T07:32:08.630Z,1.6
2022-08-01T07:33:08.262Z,1.4
2022-08-01T07:34:08.124Z,1.3
2022-08-01T07:35:09.026Z,1.2
2022-08-01T07:36:09.057Z,1.2
2022-08-01T07:37:08.394Z,1.6
2022-08-01T07:38:12.578Z,1.7
2022-08-01T07:39:08.036Z,1.4
2022-08-01T07:40:09.332Z,1.4
2022-08-01T07:41:08.662Z,1.3
2022-08-01T07:42:08.685Z,2.6
2022-08-01T07:43:08.289Z,1.4
2022-08-01T07:44:08.114Z,1.6
2022-08-01T07:45:09.403Z,1.4
2022-08-01T07:46:08.624Z,2.0
2022-08-01T07:47:08.405Z,1.5
2022-08-01T07:48:08.931Z,0.6
2022-08-01T07:49:08.112Z,0.5
2022-08-01T07:50:09.031Z,1.6
2022-08-01T07:51:09.089Z,2.0
2022-08-01T07:52:08.556Z,2.2
2022-08-01T07:53:08.263Z,0.9
2022-08-01T07:54:08.095Z,1.6
2022-08-01T07:55:08.634Z,1.4
2022-08-01T07:56:08.649Z,1.0
2022-08-01T07:57:08.610Z,1.5
2022-08-01T07:58:08.233Z,1.4
2022-08-01T07:59:08.103Z,1.7
2022-08-01T08:00:09.119Z,1.4
2022-08-01T08:01:08.666Z,1.1
2022-08-01T08:02:08.809Z,1.1
2022-08-01T08:03:08.472Z,1.2
2022-08-01T08:04:08.117Z,1.2
2022-08-01T08:05:08.079Z,1.3
2022-08-01T08:06:08.597Z,1.5
2022-08-01T08:07:09.020Z,1.5
2022-08-01T08:08:08.739Z,0.8
2022-08-01T08:09:08.023Z,1.3
2022-08-01T08:10:08.987Z,1.6
2022-08-01T08:11:08.744Z,1.6
2022-08-01T08:12:08.917Z,1.8
2022-08-01T08:13:08.270Z,1.0
2022-08-01T08:14:08.096Z,1.1
2022-08-01T08:15:08.226Z,1.8
2022-08-01T08:16:08.624Z,1.8
2022-08-01T08:17:08.415Z,1.4
2022-08-01T08:18:08.257Z,2.2
2022-08-01T08:19:08.113Z,2.1
2022-08-01T08:20:09.617Z,2.8
2022-08-01T08:21:08.711Z,2.0
2022-08-01T08:22:09.108Z,1.9
2022-08-01T08:23:08.334Z,1.7
2022-08-01T08:24:08.864Z,2.1
2022-08-01T08:25:08.271Z,1.9
2022-08-01T08:26:08.775Z,1.6
2022-08-01T08:27:08.498Z,3.3
2022-08-01T08:28:08.402Z,1.9
2022-08-01T08:29:08.200Z,2.0
2022-08-01T08:30:08.399Z,1.8
2022-08-01T08:31:24.873Z,2.5
2022-08-01T08:32:09.030Z,2.9
2022-08-01T08:33:08.506Z,2.6
2022-08-01T08:34:08.312Z,2.5
2022-08-01T08:35:08.599Z,2.4
2022-08-01T08:36:07.913Z,2.2
2022-08-01T08:37:09.526Z,2.5
2022-08-01T08:38:08.458Z,2.9
2022-08-01T08:39:08.279Z,2.5
2022-08-01T08:40:08.634Z,1.6
2022-08-01T08:41:08.455Z,2.4
2022-08-01T08:42:09.647Z,3.0
2022-08-01T08:43:08.627Z,4.0
2022-08-01T08:44:10.282Z,2.1
2022-08-01T08:45:11.926Z,2.8
2022-08-01T08:46:08.330Z,2.1
2022-08-01T08:47:10.604Z,3.2
2022-08-01T08:48:08.719Z,2.9
2022-08-01T08:49:09.063Z,2.0
2022-08-01T08:50:08.740Z,2.9
2022-08-01T08:51:08.638Z,2.2
2022-08-01T08:52:09.369Z,2.7
2022-08-01T08:53:09.359Z,3.3
2022-08-01T08:54:10.377Z,3.2
2022-08-01T08:55:08.885Z,3.9
2022-08-01T08:56:08.651Z,2.3
2022-08-01T08:57:08.760Z,3.2
2022-08-01T08:58:12.383Z,2.8
2022-08-01T08:59:08.152Z,3.1
2022-08-01T09:00:09.112Z,2.8
2022-08-01T09:01:08.522Z,3.2
2022-08-01T09:02:09.397Z,2.4
2022-08-01T09:03:08.227Z,2.7
2022-08-01T09:04:08.032Z,2.8
2022-08-01T09:05:08.957Z,3.3
2022-08-01T09:06:08.584Z,3.6
2022-08-01T09:07:08.401Z,2.9
2022-08-01T09:08:08.356Z,3.8
2022-08-01T09:09:08.248Z,3.6
2022-08-01T09:10:08.872Z,4.3
2022-08-01T09:11:08.855Z,3.3
2022-08-01T09:12:09.040Z,3.3
2022-08-01T09:13:13.047Z,2.3
2022-08-01T09:14:09.437Z,2.6
2022-08-01T09:15:09.176Z,3.3
2022-08-01T09:16:13.488Z,3.6
2022-08-01T09:17:09.390Z,4.1
2022-08-01T09:18:08.597Z,3.9
2022-08-01T09:19:39.187Z,4.1
2022-08-01T09:20:13.355Z,4.5
2022-08-01T09:21:09.663Z,3.1
2022-08-01T09:22:12.913Z,3.1
2022-08-01T09:23:12.737Z,3.3
2022-08-01T09:24:15.622Z,3.6
2022-08-01T09:25:09.623Z,3.7
2022-08-01T09:26:15.190Z,2.8
2022-08-01T09:27:19.865Z,4.4
2022-08-01T09:28:07.918Z,3.7
2022-08-01T09:29:13.497Z,3.5
2022-08-01T09:30:17.306Z,3.8
2022-08-01T09:31:09.672Z,4.0
2022-08-01T09:32:13.868Z,4.7
2022-08-01T09:33:17.770Z,4.2
2022-08-01T09:34:09.154Z,4.5
2022-08-01T09:35:30.782Z,3.9
2022-08-01T09:36:08.381Z,4.0
2022-08-01T09:37:09.398Z,4.5
2022-08-01T09:38:17.489Z,4.0
2022-08-01T09:39:12.784Z,4.6
2022-08-01T09:40:08.915Z,4.0
2022-08-01T09:41:08.376Z,3.4
2022-08-01T09:42:21.019Z,4.1
2022-08-01T09:43:11.568Z,5.3
2022-08-01T09:44:08.261Z,4.4
2022-08-01T09:45:08.468Z,4.5
2022-08-01T09:46:12.427Z,4.6
2022-08-01T09:47:08.706Z,4.4
2022-08-01T09:48:10.747Z,3.8
2022-08-01T09:49:10.908Z,4.6
2022-08-01T09:50:11.169Z,4.5
2022-08-01T09:51:09.738Z,4.6
2022-08-01T09:52:15.376Z,4.1
2022-08-01T09:53:09.325Z,5.0
2022-08-01T09:54:08.414Z,4.9
2022-08-01T09:55:08.380Z,4.6
2022-08-01T09:56:11.544Z,5.5
2022-08-01T09:57:14.621Z,5.0
2022-08-01T09:58:08.881Z,4.7
2022-08-01T09:59:08.947Z,4.5
2022-08-01T10:00:19.648Z,4.6
2022-08-01T10:01:07.954Z,4.9
2022-08-01T10:02:09.640Z,4.7
2022-08-01T10:03:19.364Z,4.2
2022-08-01T10:04:10.702Z,4.8
2022-08-01T10:05:10.253Z,4.8
2022-08-01T10:06:21.242Z,4.3
2022-08-01T10:07:08.468Z,5.7
2022-08-01T10:08:08.592Z,4.8
2022-08-01T10:09:08.801Z,4.6
2022-08-01T10:10:09.720Z,4.7
2022-08-01T10:11:08.904Z,4.9
2022-08-01T10:12:08.838Z,4.6
2022-08-01T10:13:09.738Z,4.8
2022-08-01T10:14:08.672Z,4.6
2022-08-01T10:15:09.167Z,3.4
2022-08-01T10:16:08.944Z,4.5
2022-08-01T10:17:09.286Z,4.6
2022-08-01T10:18:16.416Z,5.2
2022-08-01T10:19:14.492Z,4.5
2022-08-01T10:20:21.547Z,4.6
2022-08-01T10:21:08.843Z,4.8
2022-08-01T10:22:08.785Z,4.3
2022-08-01T10:23:08.751Z,4.2
2022-08-01T10:24:09.566Z,4.4
2022-08-01T10:25:09.009Z,4.6
2022-08-01T10:26:10.289Z,4.1
2022-08-01T10:27:12.145Z,4.6
2022-08-01T10:28:13.618Z,4.7
2022-08-01T10:29:23.975Z,4.7
2022-08-01T10:30:19.151Z,4.8
2022-08-01T10:31:12.730Z,4.2
2022-08-01T10:32:08.963Z,4.0
2022-08-01T10:33:08.498Z,4.6
2022-08-01T10:34:08.286Z,4.6
2022-08-01T10:35:14.810Z,3.9
2022-08-01T10:36:08.872Z,3.8
2022-08-01T10:37:09.711Z,3.9
2022-08-01T10:38:13.374Z,3.9
2022-08-01T10:39:10.632Z,4.6
2022-08-01T10:40:29.294Z,4.6
2022-08-01T10:41:09.312Z,4.2
2022-08-01T10:42:10.942Z,3.7
2022-08-01T10:43:09.847Z,5.4
2022-08-01T10:44:08.879Z,4.2
2022-08-01T10:45:08.956Z,4.8
2022-08-01T10:46:09.260Z,4.0
2022-08-01T10:47:12.119Z,3.8
2022-08-01T10:48:16.044Z,4.0
2022-08-01T10:49:12.156Z,4.0
2022-08-01T10:50:15.024Z,4.3
2022-08-01T10:51:18.128Z,4.6
2022-08-01T10:52:13.516Z,4.3
2022-08-01T10:53:16.514Z,4.3
2022-08-01T10:54:09.852Z,4.2
2022-08-01T10:55:08.611Z,4.0
2022-08-01T10:56:08.103Z,3.5
2022-08-01T10:57:09.385Z,4.1
2022-08-01T10:58:08.527Z,3.5
2022-08-01T10:59:11.884Z,4.8
2022-08-01T11:00:08.682Z,4.0
2022-08-01T11:01:25.655Z,4.6
2022-08-01T11:02:08.742Z,4.6
2022-08-01T11:03:08.535Z,4.6
2022-08-01T11:04:13.907Z,4.0
2022-08-01T11:05:14.323Z,3.6
2022-08-01T11:06:12.950Z,4.7
2022-08-01T11:07:19.240Z,4.4
2022-08-01T11:08:13.497Z,4.5
2022-08-01T11:09:18.956Z,4.6
2022-08-01T11:10:15.190Z,4.7
2022-08-01T11:11:08.421Z,4.1
2022-08-01T11:12:24.430Z,2.9
2022-08-01T11:13:09.072Z,4.4
2022-08-01T11:14:09.397Z,4.4
2022-08-01T11:15:16.002Z,4.7
2022-08-01T11:16:16.503Z,3.8
2022-08-01T11:17:25.856Z,3.8
2022-08-01T11:18:30.933Z,4.0
2022-08-01T11:19:08.578Z,4.4
2022-08-01T11:20:13.787Z,3.8
2022-08-01T11:21:58.831Z,4.7
2022-08-01T11:22:08.061Z,4.5
2022-08-01T11:23:13.601Z,4.5
2022-08-01T11:24:08.545Z,5.1
2022-08-01T11:25:08.413Z,4.0
2022-08-01T11:26:10.729Z,3.9
2022-08-01T11:27:24.037Z,4.5
2022-08-01T11:28:28.554Z,4.1
2022-08-01T11:29:20.451Z,4.7
2022-08-01T11:30:13.742Z,4.3
2022-08-01T11:31:14.298Z,4.3
2022-08-01T11:32:26.573Z,4.4
2022-08-01T11:33:11.529Z,4.0
2022-08-01T11:34:08.515Z,4.0
2022-08-01T11:35:08.347Z,5.5
2022-08-01T11:36:16.000Z,4.2
2022-08-01T11:37:22.889Z,4.5
2022-08-01T11:38:16.408Z,4.4
2022-08-01T11:39:13.751Z,4.8
2022-08-01T11:40:13.344Z,3.7
2022-08-01T11:41:14.811Z,4.4
2022-08-01T11:42:13.022Z,4.7
2022-08-01T11:43:17.177Z,4.6
2022-08-01T11:44:10.197Z,4.0
2022-08-01T11:45:08.513Z,4.1
2022-08-01T11:46:08.346Z,3.9
2022-08-01T11:47:09.879Z,4.2
2022-08-01T11:48:12.819Z,5.0
2022-08-01T11:49:29.034Z,4.2
2022-08-01T11:50:13.397Z,4.4
2022-08-01T11:51:17.665Z,3.9
2022-08-01T11:52:18.944Z,4.0
2022-08-01T11:53:08.021Z,4.3
2022-08-01T11:54:08.698Z,3.7
2022-08-01T11:55:10.255Z,4.7
2022-08-01T11:56:08.414Z,4.7
2022-08-01T11:57:10.357Z,4.1
2022-08-01T11:58:21.923Z,3.8
2022-08-01T11:59:15.260Z,4.2
2022-08-01T12:00:17.541Z,4.2
2022-08-01T12:01:12.510Z,4.2
2022-08-01T12:02:18.846Z,5.8
2022-08-01T12:03:08.549Z,4.6
2022-08-01T12:04:08.355Z,3.8
2022-08-01T12:05:12.363Z,4.3
2022-08-01T12:06:07.969Z,3.8
2022-08-01T12:07:12.174Z,4.0
2022-08-01T12:08:08.459Z,5.0
2022-08-01T12:09:21.388Z,4.9
2022-08-01T12:10:14.841Z,4.1
2022-08-01T12:11:07.949Z,4.7
2022-08-01T12:12:08.950Z,4.4
2022-08-01T12:13:08.616Z,3.6
2022-08-01T12:14:08.390Z,4.0
2022-08-01T12:15:10.155Z,4.5
2022-08-01T12:16:08.530Z,4.1
2022-08-01T12:17:09.083Z,3.8
2022-08-01T12:18:08.838Z,3.4
2022-08-01T12:19:08.399Z,4.2
2022-08-01T12:20:09.893Z,3.8
2022-08-01T12:21:08.480Z,4.1
2022-08-01T12:22:09.560Z,4.1
2022-08-01T12:23:09.184Z,3.9
2022-08-01T12:24:08.187Z,4.0
2022-08-01T12:25:09.861Z,2.8
2022-08-01T12:26:08.484Z,3.8
2022-08-01T12:27:09.605Z,4.1
2022-08-01T12:28:08.623Z,3.6
2022-08-01T12:29:08.072Z,3.0
2022-08-01T12:30:10.002Z,3.4
2022-08-01T12:31:08.535Z,3.5
2022-08-01T12:32:13.243Z,4.5
2022-08-01T12:33:09.247Z,4.4
2022-08-01T12:34:26.500Z,4.0
2022-08-01T12:35:17.833Z,3.5
2022-08-01T12:36:08.685Z,4.5
2022-08-01T12:37:08.772Z,3.7
2022-08-01T12:38:15.187Z,4.5
2022-08-01T12:39:08.089Z,3.8
2022-08-01T12:40:18.509Z,4.6
2022-08-01T12:41:10.195Z,3.8
2022-08-01T12:42:08.746Z,3.7
2022-08-01T12:43:08.874Z,3.3
2022-08-01T12:44:12.932Z,3.9
2022-08-01T12:45:09.130Z,4.2
2022-08-01T12:46:08.682Z,3.6
2022-08-01T12:47:09.065Z,3.9
2022-08-01T12:48:12.621Z,3.8
2022-08-01T12:49:08.329Z,3.8
2022-08-01T12:50:08.870Z,3.5
2022-08-01T12:51:08.649Z,4.0
2022-08-01T12:52:12.951Z,3.8
2022-08-01T12:53:08.919Z,3.0
2022-08-01T12:54:08.125Z,4.0
2022-08-01T12:55:09.916Z,3.4
2022-08-01T12:56:09.734Z,3.3
2022-08-01T12:57:13.428Z,4.2
2022-08-01T12:58:15.282Z,3.0
2022-08-01T12:59:24.987Z,3.7
2022-08-01T13:00:10.283Z,4.5
2022-08-01T13:01:09.527Z,4.8
2022-08-01T13:02:09.063Z,4.1
2022-08-01T13:03:12.118Z,3.9
2022-08-01T13:04:08.226Z,3.9
2022-08-01T13:05:08.311Z,4.5
2022-08-01T13:06:12.333Z,5.3
2022-08-01T13:07:09.035Z,3.9
2022-08-01T13:08:15.222Z,3.6
2022-08-01T13:09:09.281Z,3.9
2022-08-01T13:10:08.760Z,4.0
2022-08-01T13:11:11.934Z,4.8
2022-08-01T13:12:09.327Z,4.5
2022-08-01T13:13:09.010Z,4.3
2022-08-01T13:14:08.226Z,4.8
2022-08-01T13:15:21.722Z,4.1
2022-08-01T13:16:08.607Z,4.1
2022-08-01T13:17:08.813Z,5.6
2022-08-01T13:18:26.352Z,3.7
2022-08-01T13:19:08.306Z,4.9
2022-08-01T13:20:08.636Z,5.4
2022-08-01T13:21:17.915Z,4.7
2022-08-01T13:22:09.065Z,4.8
2022-08-01T13:23:11.798Z,4.0
2022-08-01T13:24:09.485Z,4.7
2022-08-01T13:25:15.487Z,3.8
2022-08-01T13:26:08.132Z,4.8
2022-08-01T13:27:13.620Z,4.8
2022-08-01T13:28:15.145Z,4.1
2022-08-01T13:29:09.575Z,5.3
2022-08-01T13:30:17.990Z,5.0
2022-08-01T13:31:08.088Z,4.1
2022-08-01T13:32:12.192Z,4.4
2022-08-01T13:33:08.548Z,4.1
2022-08-01T13:34:08.427Z,4.1
2022-08-01T13:35:09.312Z,4.8
2022-08-01T13:36:08.261Z,4.7
2022-08-01T13:37:08.791Z,4.1
2022-08-01T13:38:08.609Z,5.3
2022-08-01T13:39:08.442Z,3.7
2022-08-01T13:40:09.031Z,4.9
2022-08-01T13:41:08.071Z,3.8
2022-08-01T13:42:09.839Z,3.3
2022-08-01T13:43:08.544Z,4.7
2022-08-01T13:44:08.670Z,5.0
2022-08-01T13:45:14.689Z,4.5
2022-08-01T13:46:08.028Z,5.2